PORTS® Data Listing: 8447386 Fall River, MA

CO-OPS RAW PORTS DATA

************************      PRELIMINARY DATA      ************************** 

     THIS RAW DATA HAS NOT BEEN SUBJECT TO THE NATIONAL OCEAN SERVICE'S        
     QUALITY CONTROL OR QUALITY ASSURANCE PROCEDURES AND DOES NOT MEET         
     THE CRITERIA AND STANDARDS OF OFFICIAL NATIONAL OCEAN SERVICE             
     DATA.  IT IS RELEASED FOR LIMITED PUBLIC USE AS PRELIMINARY DATA TO       
     BE USED ONLY WITH APPROPRIATE CAUTION.                                    

************************      PRELIMINARY DATA      ************************** 


       CD   -   Calendar date
       T    -   Time
       TZ   -   Timezone
       PW   -   Predicted water level (feet above MLLW)
       OW   -   Observed water level (feet above MLLW)
       WS   -   Wind speed (knots)
       WD   -   Wind direction (degrees true)
       WG   -   Wind gust (knots)
       AT   -   Air temperature (degrees farenheit)
       WT   -   Water temperature (degrees farenheit)
       AP   -   Air pressure (millibars)
       SA   -   Salinty (PSU - Practical Salinity Units)
       SG   -   Specific gravity
       RH   -   Relative humidity
       AG   -   Air gap (feet)
       VI   -   Visibility (nautical miles)

       ** NOTE **
       A variable that has its data fields filled with "9"s, indicates that
       data was not collected for that sample period.
       **********


STATION NAME: Fall River (8447386)
****************************************************************************************************
    CD       T    TZ    PW     OW    WS   WD   WG    AT    WT    AP    SA    SG     RH    AG   VI
****************************************************************************************************
2019/11/17 07:12 EST    2.18   2.28 -999 -999 -999  28.6  47.7 1030.0 30.5  1.025 -99.9 -99.99 -9.99
2019/11/17 07:18 EST    2.24   2.38 -999 -999 -999  28.6  47.8 1030.1 30.6  1.025 -99.9 -99.99 -9.99
2019/11/17 07:24 EST    2.29   2.48 -999 -999 -999  29.1  48.0 1030.1 30.6  1.025 -99.9 -99.99 -9.99
2019/11/17 07:30 EST    2.35   2.56 -999 -999 -999  28.9  48.2 1030.1 30.9  1.025 -99.9 -99.99 -9.99
2019/11/17 07:36 EST    2.40   2.65 -999 -999 -999  29.3  48.2 1030.1 30.9  1.025 -99.9 -99.99 -9.99
2019/11/17 07:42 EST    2.45   2.75 -999 -999 -999  29.3  48.2 1030.1 31.2  1.025 -99.9 -99.99 -9.99
2019/11/17 07:48 EST    2.50   2.85 -999 -999 -999  29.7  48.2 1030.0 31.0  1.025 -99.9 -99.99 -9.99
2019/11/17 07:54 EST    2.55   2.95 -999 -999 -999  29.7  48.2 1030.1 31.1  1.025 -99.9 -99.99 -9.99
2019/11/17 08:00 EST    2.60   3.05 -999 -999 -999  29.8  48.2 1030.1 31.3  1.025 -99.9 -99.99 -9.99
2019/11/17 08:06 EST    2.66   3.16 -999 -999 -999  30.0  48.2 1030.1 31.4  1.025 -99.9 -99.99 -9.99
2019/11/17 08:12 EST    2.71   3.26 -999 -999 -999  30.4  48.4 1030.2 31.6  1.025 -99.9 -99.99 -9.99
2019/11/17 08:18 EST    2.76   3.36 -999 -999 -999  30.6  48.4 1030.3 31.7  1.025 -99.9 -99.99 -9.99
2019/11/17 08:24 EST    2.82   3.46 -999 -999 -999  30.7  48.4 1030.3 31.9  1.026 -99.9 -99.99 -9.99
2019/11/17 08:30 EST    2.88   3.58 -999 -999 -999  31.1  48.6 1030.2 32.0  1.026 -99.9 -99.99 -9.99
2019/11/17 08:36 EST    2.94   3.70 -999 -999 -999  31.5  48.6 1030.2 32.0  1.026 -99.9 -99.99 -9.99
2019/11/17 08:42 EST    3.01   3.80 -999 -999 -999  31.6  48.6 1030.1 31.8  1.026 -99.9 -99.99 -9.99
2019/11/17 08:48 EST    3.07   3.88 -999 -999 -999  32.0  48.6 1030.2 32.0  1.026 -99.9 -99.99 -9.99
2019/11/17 08:54 EST    3.14   3.97 -999 -999 -999  32.4  48.6 1030.3 32.0  1.026 -99.9 -99.99 -9.99
2019/11/17 09:00 EST    3.22   4.08 -999 -999 -999  32.4  48.6 1030.3 32.1  1.026 -99.9 -99.99 -9.99
2019/11/17 09:06 EST    3.29   4.15 -999 -999 -999  32.7  48.6 1030.4 32.1  1.026 -99.9 -99.99 -9.99
2019/11/17 09:12 EST    3.37   4.25 -999 -999 -999  32.9  48.6 1030.4 32.1  1.026 -99.9 -99.99 -9.99
2019/11/17 09:18 EST    3.45   4.36 -999 -999 -999  33.1  48.6 1030.3 32.0  1.026 -99.9 -99.99 -9.99
2019/11/17 09:24 EST    3.53   4.44 -999 -999 -999  33.4  48.6 1030.2 32.1  1.026 -99.9 -99.99 -9.99
2019/11/17 09:30 EST    3.61   4.52 -999 -999 -999  33.8  48.6 1030.2 32.1  1.026 -99.9 -99.99 -9.99
2019/11/17 09:36 EST    3.70   4.61 -999 -999 -999  34.0  48.6 1030.0 32.1  1.026 -99.9 -99.99 -9.99
2019/11/17 09:42 EST    3.78   4.69 -999 -999 -999  34.3  48.4 1030.0 32.0  1.026 -99.9 -99.99 -9.99
2019/11/17 09:48 EST    3.87   4.78 -999 -999 -999  34.7  48.4 1029.8 31.8  1.025 -99.9 -99.99 -9.99
2019/11/17 09:54 EST    3.95   4.87 -999 -999 -999  35.1  48.4 1029.7 31.7  1.025 -99.9 -99.99 -9.99
2019/11/17 10:00 EST    4.03   4.95 -999 -999 -999  35.4  48.4 1029.6 31.7  1.025 -99.9 -99.99 -9.99
2019/11/17 10:06 EST    4.12   5.05 -999 -999 -999  35.4  48.2 1029.6 31.6  1.025 -99.9 -99.99 -9.99
2019/11/17 10:12 EST    4.19   5.12 -999 -999 -999  35.8  48.2 1029.5 31.6  1.025 -99.9 -99.99 -9.99
2019/11/17 10:18 EST    4.27   5.16 -999 -999 -999  36.1  48.2 1029.4 31.5  1.025 -99.9 -99.99 -9.99
2019/11/17 10:24 EST    4.33   5.22 -999 -999 -999  36.3  47.8 1029.2 31.5  1.025 -99.9 -99.99 -9.99
2019/11/17 10:30 EST    4.40   5.27 -999 -999 -999  36.5  48.0 1029.1 31.6  1.025 -99.9 -99.99 -9.99
2019/11/17 10:36 EST    4.46   5.29 -999 -999 -999  36.9  48.0 1029.0 31.5  1.025 -99.9 -99.99 -9.99
2019/11/17 10:42 EST    4.51   5.32 -999 -999 -999  37.4  47.8 1028.8 31.5  1.025 -99.9 -99.99 -9.99
2019/11/17 10:48 EST    4.55   5.36 -999 -999 -999  37.6  47.7 1028.5 31.5  1.025 -99.9 -99.99 -9.99
2019/11/17 10:54 EST    4.59   5.38 -999 -999 -999  37.9  47.7 1028.4 31.4  1.025 -99.9 -99.99 -9.99
2019/11/17 11:00 EST    4.62   5.37 -999 -999 -999  38.5  47.7 1028.4 31.3  1.025 -99.9 -99.99 -9.99
2019/11/17 11:06 EST    4.64   5.36 -999 -999 -999  38.8  47.5 1028.5 31.3  1.025 -99.9 -99.99 -9.99
2019/11/17 11:12 EST    4.65   5.34 -999 -999 -999  39.7  47.5 1028.2 31.2  1.025 -99.9 -99.99 -9.99
2019/11/17 11:18 EST    4.66   5.32 -999 -999 -999  40.6  47.5 1028.1 31.3  1.025 -99.9 -99.99 -9.99
2019/11/17 11:24 EST    4.65   5.30 -999 -999 -999  41.0  47.5 1027.9 31.3  1.025 -99.9 -99.99 -9.99
2019/11/17 11:30 EST    4.63   5.26 -999 -999 -999  41.0  47.5 1027.9 31.4  1.025 -99.9 -99.99 -9.99
2019/11/17 11:36 EST    4.61   5.23 -999 -999 -999  41.2  47.5 1027.8 31.4  1.025 -99.9 -99.99 -9.99
2019/11/17 11:42 EST    4.58   5.18 -999 -999 -999  41.4  47.7 1027.7 31.4  1.025 -99.9 -99.99 -9.99
2019/11/17 11:48 EST    4.53   5.11 -999 -999 -999  41.5  47.7 1027.6 31.4  1.025 -99.9 -99.99 -9.99
2019/11/17 11:54 EST    4.48   5.04 -999 -999 -999  41.7  47.7 1027.5 31.4  1.025 -99.9 -99.99 -9.99
2019/11/17 12:00 EST    4.42   4.98 -999 -999 -999  41.5  47.7 1027.4 31.4  1.025 -99.9 -99.99 -9.99
2019/11/17 12:06 EST    4.35   4.92 -999 -999 -999  41.9  47.5 1027.3 31.4  1.025 -99.9 -99.99 -9.99
2019/11/17 12:12 EST    4.27   4.83 -999 -999 -999  41.9  47.5 1027.2 31.4  1.025 -99.9 -99.99 -9.99
2019/11/17 12:18 EST    4.19   4.76 -999 -999 -999  42.1  47.5 1027.1 31.3  1.025 -99.9 -99.99 -9.99
2019/11/17 12:24 EST    4.10   4.68 -999 -999 -999  42.1  47.1 1027.0 31.2  1.025 -99.9 -99.99 -9.99
2019/11/17 12:30 EST    4.00   4.58 -999 -999 -999  41.9  47.1 1026.9 31.0  1.025 -99.9 -99.99 -9.99
2019/11/17 12:36 EST    3.90   4.47 -999 -999 -999  41.9  47.1 1026.8 31.1  1.025 -99.9 -99.99 -9.99
2019/11/17 12:42 EST    3.79   4.37 -999 -999 -999  41.9  46.9 1026.8 31.1  1.025 -99.9 -99.99 -9.99
2019/11/17 12:48 EST    3.68   4.28 -999 -999 -999  41.9  46.9 1026.6 31.1  1.025 -99.9 -99.99 -9.99
2019/11/17 12:54 EST    3.56   4.18 -999 -999 -999  41.9  47.7 1026.6 31.0  1.025 -99.9 -99.99 -9.99
2019/11/17 13:00 EST    3.44   4.05 -999 -999 -999  41.9  47.5 1026.5 31.3  1.025 -99.9 -99.99 -9.99
2019/11/17 13:06 EST    3.32   3.91 -999 -999 -999  42.3  47.1 1026.4 22.7  1.018 -99.9 -99.99 -9.99
2019/11/17 13:12 EST    3.20   3.80 -999 -999 -999  42.3  47.1 1026.3 31.2  1.025 -99.9 -99.99 -9.99
2019/11/17 13:18 EST    3.07   3.68 -999 -999 -999  42.3  46.9 1026.1 31.3  1.025 -99.9 -99.99 -9.99
2019/11/17 13:24 EST    2.94   3.56 -999 -999 -999  42.3  46.9 1026.0 31.2  1.025 -99.9 -99.99 -9.99
2019/11/17 13:30 EST    2.82   3.43 -999 -999 -999  42.3  46.9 1025.9 31.2  1.025 -99.9 -99.99 -9.99
2019/11/17 13:36 EST    2.69   3.32 -999 -999 -999  42.4  46.9 1025.9 31.1  1.025 -99.9 -99.99 -9.99
2019/11/17 13:42 EST    2.56   3.21 -999 -999 -999  42.3  47.7 1025.8 31.3  1.025 -99.9 -99.99 -9.99
2019/11/17 13:48 EST    2.44   3.09 -999 -999 -999  42.4  48.0 1025.7 31.6  1.025 -99.9 -99.99 -9.99
2019/11/17 13:54 EST    2.31   2.97 -999 -999 -999  42.6  47.8 1025.5 31.6  1.025 -99.9 -99.99 -9.99
2019/11/17 14:00 EST    2.19   2.86 -999 -999 -999  42.4  47.7 1025.4 31.4  1.025 -99.9 -99.99 -9.99
2019/11/17 14:06 EST    2.07   2.75 -999 -999 -999  42.6  47.1 1025.4 31.1  1.025 -99.9 -99.99 -9.99
2019/11/17 14:12 EST    1.95   2.64 -999 -999 -999  42.6  47.1 1025.4 30.6  1.025 -99.9 -99.99 -9.99
2019/11/17 14:18 EST    1.83   2.51 -999 -999 -999  42.4  47.1 1025.4 30.6  1.025 -99.9 -99.99 -9.99
2019/11/17 14:24 EST    1.72   2.41 -999 -999 -999  42.4  46.9 1025.3 30.7  1.025 -99.9 -99.99 -9.99
2019/11/17 14:30 EST    1.61   2.31 -999 -999 -999  42.4  46.9 1025.2 30.7  1.025 -99.9 -99.99 -9.99
2019/11/17 14:36 EST    1.50   2.18 -999 -999 -999  42.6  46.9 1025.1 30.7  1.025 -99.9 -99.99 -9.99
2019/11/17 14:42 EST    1.40   2.06 -999 -999 -999  42.6  47.1 1025.2 30.7  1.025 -99.9 -99.99 -9.99
2019/11/17 14:48 EST    1.30   1.97 -999 -999 -999  42.4  47.1 1025.1 30.8  1.025 -99.9 -99.99 -9.99
2019/11/17 14:54 EST    1.21   1.88 -999 -999 -999  42.4  47.1 1025.1 30.8  1.025 -99.9 -99.99 -9.99
2019/11/17 15:00 EST    1.12   1.78 -999 -999 -999  42.4  47.1 1025.0 30.8  1.025 -99.9 -99.99 -9.99
2019/11/17 15:06 EST    1.03   1.68 -999 -999 -999  42.4  47.1 1025.1 30.8  1.025 -99.9 -99.99 -9.99
2019/11/17 15:12 EST    0.95   1.61 -999 -999 -999  42.6  47.1 1025.0 30.8  1.025 -99.9 -99.99 -9.99
2019/11/17 15:18 EST    0.87   1.52 -999 -999 -999  42.4  47.1 1024.9 30.7  1.025 -99.9 -99.99 -9.99
2019/11/17 15:24 EST    0.80   1.44 -999 -999 -999  42.4  47.1 1025.0 30.8  1.025 -99.9 -99.99 -9.99
2019/11/17 15:30 EST    0.74   1.38 -999 -999 -999  42.3  47.1 1025.0 30.8  1.025 -99.9 -99.99 -9.99
2019/11/17 15:36 EST    0.68   1.32 -999 -999 -999  42.1  47.1 1025.0 30.8  1.025 -99.9 -99.99 -9.99
2019/11/17 15:42 EST    0.62   1.28 -999 -999 -999  42.1  47.1 1024.9 30.6  1.025 -99.9 -99.99 -9.99
2019/11/17 15:48 EST    0.57   1.25 -999 -999 -999  42.1  46.9 1024.9 30.3  1.024 -99.9 -99.99 -9.99
2019/11/17 15:54 EST    0.52   1.22 -999 -999 -999  42.1  46.9 1024.8 30.1  1.024 -99.9 -99.99 -9.99
2019/11/17 16:00 EST    0.48   1.19 -999 -999 -999  41.9  46.9 1024.7 30.1  1.024 -99.9 -99.99 -9.99
2019/11/17 16:06 EST    0.45   1.18 -999 -999 -999  41.9  46.9 1024.6 30.1  1.024 -99.9 -99.99 -9.99
2019/11/17 16:12 EST    0.42   1.16 -999 -999 -999  41.9  46.9 1024.5 30.1  1.024 -99.9 -99.99 -9.99
2019/11/17 16:18 EST    0.40   1.15 -999 -999 -999  41.7  46.9 1024.5 30.1  1.024 -99.9 -99.99 -9.99
2019/11/17 16:24 EST    0.38   1.16 -999 -999 -999  41.7  46.9 1024.5 30.2  1.024 -99.9 -99.99 -9.99
2019/11/17 16:30 EST    0.37   1.17 -999 -999 -999  41.7  46.9 1024.4 30.2  1.024 -99.9 -99.99 -9.99
2019/11/17 16:36 EST    0.37   1.20 -999 -999 -999  41.5  46.9 1024.3 30.2  1.024 -99.9 -99.99 -9.99
2019/11/17 16:42 EST    0.37   1.23 -999 -999 -999  41.5  46.9 1024.2 24.6  1.020 -99.9 -99.99 -9.99
2019/11/17 16:48 EST    0.38   1.25 -999 -999 -999  41.5  46.9 1024.2 20.7  1.017 -99.9 -99.99 -9.99
2019/11/17 16:54 EST    0.39   1.28 -999 -999 -999  41.4  47.1 1024.1 20.7  1.017 -99.9 -99.99 -9.99
2019/11/17 17:00 EST    0.40   1.32 -999 -999 -999  41.4  47.1 1024.0 20.8  1.017 -99.9 -99.99 -9.99
2019/11/17 17:06 EST    0.42   1.37 -999 -999 -999  41.4  47.1 1024.0 20.9  1.017 -99.9 -99.99 -9.99
2019/11/17 17:12 EST    0.45   1.41 -999 -999 -999  41.4  46.9 1023.9 20.9  1.017 -99.9 -99.99 -9.99
2019/11/17 17:18 EST    0.48   1.47 -999 -999 -999  41.4  46.9 1023.8 20.8  1.017 -99.9 -99.99 -9.99
2019/11/17 17:24 EST    0.51   1.53 -999 -999 -999  41.4  46.9 1023.7 20.8  1.017 -99.9 -99.99 -9.99
2019/11/17 17:30 EST    0.55   1.59 -999 -999 -999  41.4  46.9 1023.7 20.7  1.017 -99.9 -99.99 -9.99
2019/11/17 17:36 EST    0.59   1.62 -999 -999 -999  41.2  46.8 1023.7 20.6  1.017 -99.9 -99.99 -9.99
2019/11/17 17:42 EST    0.63   1.65 -999 -999 -999  41.2  46.8 1023.7 20.6  1.017 -99.9 -99.99 -9.99
2019/11/17 17:48 EST    0.67   1.70 -999 -999 -999  41.2  46.8 1023.6 20.5  1.017 -99.9 -99.99 -9.99
2019/11/17 17:54 EST    0.72   1.74 -999 -999 -999  41.2  46.8 1023.5 20.5  1.017 -99.9 -99.99 -9.99
2019/11/17 18:00 EST    0.77   1.77 -999 -999 -999  41.0  46.6 1023.3 20.6  1.017 -99.9 -99.99 -9.99
2019/11/17 18:06 EST    0.81   1.81 -999 -999 -999  41.0  46.8 1023.0 20.5  1.017 -99.9 -99.99 -9.99
2019/11/17 18:12 EST    0.86   1.85 -999 -999 -999  41.0  46.8 1023.0 20.5  1.017 -99.9 -99.99 -9.99
2019/11/17 18:18 EST    0.91   1.87 -999 -999 -999  41.0  46.9 1022.8 20.6  1.017 -99.9 -99.99 -9.99
2019/11/17 18:24 EST    0.95   1.90 -999 -999 -999  40.8  47.1 1022.8 20.7  1.017 -99.9 -99.99 -9.99
2019/11/17 18:30 EST    1.00   1.92 -999 -999 -999  40.8  47.1 1022.7 20.7  1.017 -99.9 -99.99 -9.99
2019/11/17 18:36 EST    1.04   1.96 -999 -999 -999  40.8  47.3 1022.6 20.9  1.017 -99.9 -99.99 -9.99
2019/11/17 18:42 EST    1.09   1.98 -999 -999 -999  40.6  46.8 1022.6 20.8  1.017 -99.9 -99.99 -9.99
2019/11/17 18:48 EST    1.13   2.00 -999 -999 -999  40.6  47.1 1022.5 20.7  1.017 -99.9 -99.99 -9.99
2019/11/17 18:54 EST    1.17   2.00 -999 -999 -999  40.6  47.3 1022.4 20.7  1.017 -99.9 -99.99 -9.99
2019/11/17 19:00 EST    1.21   2.02 -999 -999 -999  40.8  47.1 1022.4 20.8  1.017 -99.9 -99.99 -9.99
2019/11/17 19:06 EST    1.24   2.05 -999 -999 -999  40.8  47.5 1022.5 20.9  1.017 -99.9 -99.99 -9.99
2019/11/17 19:12 EST    1.28   2.05 -999 -999 -999  41.0  47.1 1022.3 20.9  1.017 -99.9 -99.99 -9.99
2019/11/17 19:18 EST    1.31   2.07 -999 -999 -999  41.0  46.9 1022.2 20.7  1.017 -99.9 -99.99 -9.99
2019/11/17 19:24 EST    1.34   2.09 -999 -999 -999  41.0  46.9 1022.1 20.8  1.017 -99.9 -99.99 -9.99
2019/11/17 19:30 EST    1.37   2.09 -999 -999 -999  41.0  46.8 1022.1 20.7  1.017 -99.9 -99.99 -9.99
2019/11/17 19:36 EST    1.40   2.09 -999 -999 -999  41.2  46.9 1022.0 20.6  1.017 -99.9 -99.99 -9.99
2019/11/17 19:42 EST    1.43   2.11 -999 -999 -999  41.2  46.8 1022.0 20.3  1.017 -99.9 -99.99 -9.99
2019/11/17 19:48 EST    1.46   2.15 -999 -999 -999  41.2  46.8 1021.8 20.5  1.017 -99.9 -99.99 -9.99
2019/11/17 19:54 EST    1.49   2.19 -999 -999 -999  41.4  46.9 1021.7 20.4  1.017 -99.9 -99.99 -9.99
2019/11/17 20:00 EST    1.51   2.23 -999 -999 -999  41.4  48.0 1021.5 21.1  1.017 -99.9 -99.99 -9.99
2019/11/17 20:06 EST    1.55   2.26 -999 -999 -999  41.4  47.7 1021.3 21.1  1.017 -99.9 -99.99 -9.99
2019/11/17 20:12 EST    1.58   2.30 -999 -999 -999  41.4  47.5 1021.2 21.2  1.017 -99.9 -99.99 -9.99
2019/11/17 20:18 EST    1.61   2.35 -999 -999 -999  41.4  47.7 1020.9 21.3  1.017 -99.9 -99.99 -9.99
2019/11/17 20:24 EST    1.65   2.42 -999 -999 -999  41.4  47.7 1020.7 21.4  1.017 -99.9 -99.99 -9.99
2019/11/17 20:30 EST    1.69   2.49 -999 -999 -999  41.4  47.7 1020.5 21.4  1.017 -99.9 -99.99 -9.99
2019/11/17 20:36 EST    1.73   2.57 -999 -999 -999  41.5  47.7 1020.5 21.4  1.017 -99.9 -99.99 -9.99
2019/11/17 20:42 EST    1.78   2.65 -999 -999 -999  41.5  48.0 1020.4 21.4  1.017 -99.9 -99.99 -9.99
2019/11/17 20:48 EST    1.83   2.75 -999 -999 -999  41.7  48.0 1020.1 21.6  1.018 -99.9 -99.99 -9.99
2019/11/17 20:54 EST    1.89   2.84 -999 -999 -999  41.9  47.8 1020.0 21.5  1.017 -99.9 -99.99 -9.99
2019/11/17 21:00 EST    1.95   2.92 -999 -999 -999  41.9  47.7 1019.9 21.4  1.017 -99.9 -99.99 -9.99
2019/11/17 21:06 EST    2.02   3.03 -999 -999 -999  42.1  47.8 1019.8 21.4  1.017 -99.9 -99.99 -9.99
2019/11/17 21:12 EST    2.09   3.13 -999 -999 -999  42.3  48.2 1019.8 21.4  1.017 -99.9 -99.99 -9.99
2019/11/17 21:18 EST    2.17   3.24 -999 -999 -999  42.3  48.0 1019.7 21.6  1.018 -99.9 -99.99 -9.99
2019/11/17 21:24 EST    2.25   3.36 -999 -999 -999  42.3  47.7 1019.6 21.5  1.018 -99.9 -99.99 -9.99
2019/11/17 21:30 EST    2.33   3.49 -999 -999 -999  42.4  47.7 1019.6 21.3  1.017 -99.9 -99.99 -9.99
2019/11/17 21:36 EST    2.42   3.62 -999 -999 -999  42.4  47.3 1019.4 21.0  1.017 -99.9 -99.99 -9.99
2019/11/17 21:42 EST    2.51   3.73 -999 -999 -999  42.6  47.3 1019.3 21.0  1.017 -99.9 -99.99 -9.99
2019/11/17 21:48 EST    2.61   3.85 -999 -999 -999  42.6  47.3 1019.3 21.0  1.017 -99.9 -99.99 -9.99
2019/11/17 21:54 EST    2.71   3.98 -999 -999 -999  42.6  47.3 1019.3 21.0  1.017 -99.9 -99.99 -9.99
2019/11/17 22:00 EST    2.81   4.09 -999 -999 -999  42.8  47.3 1019.3 21.0  1.017 -99.9 -99.99 -9.99
2019/11/17 22:06 EST    2.91   4.21 -999 -999 -999  42.8  47.7 1019.2 21.0  1.017 -99.9 -99.99 -9.99
2019/11/17 22:12 EST    3.02   4.34 -999 -999 -999  42.8  47.7 1019.1 21.4  1.017 -99.9 -99.99 -9.99
2019/11/17 22:18 EST    3.12   4.48 -999 -999 -999  43.0  48.0 1019.0 21.5  1.017 -99.9 -99.99 -9.99
2019/11/17 22:24 EST    3.23   4.59 -999 -999 -999  43.0  48.0 1018.9 21.6  1.018 -99.9 -99.99 -9.99
2019/11/17 22:30 EST    3.33   4.71 -999 -999 -999  43.0  48.0 1018.8 21.7  1.018 -99.9 -99.99 -9.99
2019/11/17 22:36 EST    3.43   4.80 -999 -999 -999  43.2  47.8 1018.7 21.6  1.018 -99.9 -99.99 -9.99
2019/11/17 22:42 EST    3.52   4.89 -999 -999 -999  43.3  48.0 1018.6 21.7  1.018 -99.9 -99.99 -9.99
2019/11/17 22:48 EST    3.61   4.96 -999 -999 -999  43.3  48.2 1018.4 21.4  1.017 -99.9 -99.99 -9.99
2019/11/17 22:54 EST    3.70   5.03 -999 -999 -999  43.3  48.4 1018.4 21.4  1.017 -99.9 -99.99 -9.99
2019/11/17 23:00 EST    3.78   5.09 -999 -999 -999  43.3  48.2 1018.3 21.6  1.018 -99.9 -99.99 -9.99
2019/11/17 23:06 EST    3.86   5.15 -999 -999 -999  43.5  48.4 1018.2 21.8  1.018 -99.9 -99.99 -9.99
2019/11/17 23:12 EST    3.92   5.19 -999 -999 -999  43.5  48.6 1018.0 21.9  1.018 -99.9 -99.99 -9.99
2019/11/17 23:18 EST    3.98   5.24 -999 -999 -999  43.5  48.7 1018.0 22.0  1.018 -99.9 -99.99 -9.99
2019/11/17 23:24 EST    4.03   5.27 -999 -999 -999  43.5  48.2 1017.9 21.9  1.018 -99.9 -99.99 -9.99
2019/11/17 23:30 EST    4.07   5.27 -999 -999 -999  43.7  48.0 1017.8 21.8  1.018 -99.9 -99.99 -9.99
2019/11/17 23:36 EST    4.11   5.27 -999 -999 -999  43.7  48.2 1017.7 21.9  1.018 -99.9 -99.99 -9.99
2019/11/17 23:42 EST    4.13   5.28 -999 -999 -999  43.7  48.6 1017.6 21.8  1.018 -99.9 -99.99 -9.99
2019/11/17 23:48 EST    4.14   5.27 -999 -999 -999  43.7  48.6 1017.5 22.1  1.018 -99.9 -99.99 -9.99
2019/11/17 23:54 EST    4.15   5.24 -999 -999 -999  43.7  48.9 1017.4 22.2  1.018 -99.9 -99.99 -9.99
2019/11/18 00:00 EST    4.14   5.20 -999 -999 -999  43.7  49.1 1017.4 22.3  1.018 -99.9 -99.99 -9.99
2019/11/18 00:06 EST    4.12   5.16 -999 -999 -999  43.7  49.1 1017.3 22.3  1.018 -99.9 -99.99 -9.99
2019/11/18 00:12 EST    4.09   5.11 -999 -999 -999  43.7  48.6 1017.3 22.2  1.018 -99.9 -99.99 -9.99
2019/11/18 00:18 EST    4.05   5.04 -999 -999 -999  43.7  48.2 1017.2 22.0  1.018 -99.9 -99.99 -9.99
2019/11/18 00:24 EST    4.01   4.97 -999 -999 -999  43.9  48.2 1017.0 21.9  1.018 -99.9 -99.99 -9.99
2019/11/18 00:30 EST    3.95   4.90 -999 -999 -999  43.9  48.0 1016.9 21.7  1.018 -99.9 -99.99 -9.99
2019/11/18 00:36 EST    3.88   4.82 -999 -999 -999  43.9  48.0 1016.8 21.9  1.018 -99.9 -99.99 -9.99
2019/11/18 00:42 EST    3.81   4.73 -999 -999 -999  43.9  48.0 1016.7 21.9  1.018 -99.9 -99.99 -9.99
2019/11/18 00:48 EST    3.72   4.64 -999 -999 -999  43.9  48.0 1016.6 21.9  1.018 -99.9 -99.99 -9.99
2019/11/18 00:54 EST    3.63   4.55 -999 -999 -999  43.9  48.2 1016.5 22.0  1.018 -99.9 -99.99 -9.99
2019/11/18 01:00 EST    3.54 -99.99 -999 -999 -999 -99.9 -99.9 -999.9 -9.9 -9.999 -99.9 -99.99 -9.99
2019/11/18 01:06 EST    3.43 -99.99 -999 -999 -999 -99.9 -99.9 -999.9 -9.9 -9.999 -99.9 -99.99 -9.99
2019/11/18 01:12 EST    3.32 -99.99 -999 -999 -999 -99.9 -99.9 -999.9 -9.9 -9.999 -99.9 -99.99 -9.99
2019/11/18 01:18 EST    3.21 -99.99 -999 -999 -999 -99.9 -99.9 -999.9 -9.9 -9.999 -99.9 -99.99 -9.99
2019/11/18 01:24 EST    3.09 -99.99 -999 -999 -999 -99.9 -99.9 -999.9 -9.9 -9.999 -99.9 -99.99 -9.99
2019/11/18 01:30 EST    2.97 -99.99 -999 -999 -999 -99.9 -99.9 -999.9 -9.9 -9.999 -99.9 -99.99 -9.99
2019/11/18 01:36 EST    2.84 -99.99 -999 -999 -999 -99.9 -99.9 -999.9 -9.9 -9.999 -99.9 -99.99 -9.99
2019/11/18 01:42 EST    2.71 -99.99 -999 -999 -999 -99.9 -99.9 -999.9 -9.9 -9.999 -99.9 -99.99 -9.99
2019/11/18 01:48 EST    2.59 -99.99 -999 -999 -999 -99.9 -99.9 -999.9 -9.9 -9.999 -99.9 -99.99 -9.99
2019/11/18 01:54 EST    2.45 -99.99 -999 -999 -999 -99.9 -99.9 -999.9 -9.9 -9.999 -99.9 -99.99 -9.99
2019/11/18 02:00 EST    2.32 -99.99 -999 -999 -999 -99.9 -99.9 -999.9 -9.9 -9.999 -99.9 -99.99 -9.99
2019/11/18 02:06 EST    2.19 -99.99 -999 -999 -999 -99.9 -99.9 -999.9 -9.9 -9.999 -99.9 -99.99 -9.99
2019/11/18 02:12 EST    2.06 -99.99 -999 -999 -999 -99.9 -99.9 -999.9 -9.9 -9.999 -99.9 -99.99 -9.99
2019/11/18 02:18 EST    1.93 -99.99 -999 -999 -999 -99.9 -99.9 -999.9 -9.9 -9.999 -99.9 -99.99 -9.99
2019/11/18 02:24 EST    1.80 -99.99 -999 -999 -999 -99.9 -99.9 -999.9 -9.9 -9.999 -99.9 -99.99 -9.99
2019/11/18 02:30 EST    1.68 -99.99 -999 -999 -999 -99.9 -99.9 -999.9 -9.9 -9.999 -99.9 -99.99 -9.99
2019/11/18 02:36 EST    1.56 -99.99 -999 -999 -999 -99.9 -99.9 -999.9 -9.9 -9.999 -99.9 -99.99 -9.99
2019/11/18 02:42 EST    1.44 -99.99 -999 -999 -999 -99.9 -99.9 -999.9 -9.9 -9.999 -99.9 -99.99 -9.99
2019/11/18 02:48 EST    1.32 -99.99 -999 -999 -999 -99.9 -99.9 -999.9 -9.9 -9.999 -99.9 -99.99 -9.99
2019/11/18 02:54 EST    1.21 -99.99 -999 -999 -999 -99.9 -99.9 -999.9 -9.9 -9.999 -99.9 -99.99 -9.99
2019/11/18 03:00 EST    1.10 -99.99 -999 -999 -999 -99.9 -99.9 -999.9 -9.9 -9.999 -99.9 -99.99 -9.99
2019/11/18 03:06 EST    1.00 -99.99 -999 -999 -999 -99.9 -99.9 -999.9 -9.9 -9.999 -99.9 -99.99 -9.99
2019/11/18 03:12 EST    0.90 -99.99 -999 -999 -999 -99.9 -99.9 -999.9 -9.9 -9.999 -99.9 -99.99 -9.99
2019/11/18 03:18 EST    0.80 -99.99 -999 -999 -999 -99.9 -99.9 -999.9 -9.9 -9.999 -99.9 -99.99 -9.99
2019/11/18 03:24 EST    0.71 -99.99 -999 -999 -999 -99.9 -99.9 -999.9 -9.9 -9.999 -99.9 -99.99 -9.99
2019/11/18 03:30 EST    0.63 -99.99 -999 -999 -999 -99.9 -99.9 -999.9 -9.9 -9.999 -99.9 -99.99 -9.99
2019/11/18 03:36 EST    0.55 -99.99 -999 -999 -999 -99.9 -99.9 -999.9 -9.9 -9.999 -99.9 -99.99 -9.99
2019/11/18 03:42 EST    0.48 -99.99 -999 -999 -999 -99.9 -99.9 -999.9 -9.9 -9.999 -99.9 -99.99 -9.99
2019/11/18 03:48 EST    0.42 -99.99 -999 -999 -999 -99.9 -99.9 -999.9 -9.9 -9.999 -99.9 -99.99 -9.99
2019/11/18 03:54 EST    0.36 -99.99 -999 -999 -999 -99.9 -99.9 -999.9 -9.9 -9.999 -99.9 -99.99 -9.99
2019/11/18 04:00 EST    0.31 -99.99 -999 -999 -999 -99.9 -99.9 -999.9 -9.9 -9.999 -99.9 -99.99 -9.99
2019/11/18 04:06 EST    0.26 -99.99 -999 -999 -999 -99.9 -99.9 -999.9 -9.9 -9.999 -99.9 -99.99 -9.99
2019/11/18 04:12 EST    0.23 -99.99 -999 -999 -999 -99.9 -99.9 -999.9 -9.9 -9.999 -99.9 -99.99 -9.99
2019/11/18 04:18 EST    0.19 -99.99 -999 -999 -999 -99.9 -99.9 -999.9 -9.9 -9.999 -99.9 -99.99 -9.99
2019/11/18 04:24 EST    0.17 -99.99 -999 -999 -999 -99.9 -99.9 -999.9 -9.9 -9.999 -99.9 -99.99 -9.99
2019/11/18 04:30 EST    0.15 -99.99 -999 -999 -999 -99.9 -99.9 -999.9 -9.9 -9.999 -99.9 -99.99 -9.99
2019/11/18 04:36 EST    0.15 -99.99 -999 -999 -999 -99.9 -99.9 -999.9 -9.9 -9.999 -99.9 -99.99 -9.99
2019/11/18 04:42 EST    0.14 -99.99 -999 -999 -999 -99.9 -99.9 -999.9 -9.9 -9.999 -99.9 -99.99 -9.99
2019/11/18 04:48 EST    0.15 -99.99 -999 -999 -999 -99.9 -99.9 -999.9 -9.9 -9.999 -99.9 -99.99 -9.99
2019/11/18 04:54 EST    0.16 -99.99 -999 -999 -999 -99.9 -99.9 -999.9 -9.9 -9.999 -99.9 -99.99 -9.99
2019/11/18 05:00 EST    0.18 -99.99 -999 -999 -999 -99.9 -99.9 -999.9 -9.9 -9.999 -99.9 -99.99 -9.99
2019/11/18 05:06 EST    0.20 -99.99 -999 -999 -999 -99.9 -99.9 -999.9 -9.9 -9.999 -99.9 -99.99 -9.99
2019/11/18 05:12 EST    0.24 -99.99 -999 -999 -999 -99.9 -99.9 -999.9 -9.9 -9.999 -99.9 -99.99 -9.99
2019/11/18 05:18 EST    0.27 -99.99 -999 -999 -999 -99.9 -99.9 -999.9 -9.9 -9.999 -99.9 -99.99 -9.99
2019/11/18 05:24 EST    0.32 -99.99 -999 -999 -999 -99.9 -99.9 -999.9 -9.9 -9.999 -99.9 -99.99 -9.99
2019/11/18 05:30 EST    0.37 -99.99 -999 -999 -999 -99.9 -99.9 -999.9 -9.9 -9.999 -99.9 -99.99 -9.99
2019/11/18 05:36 EST    0.42 -99.99 -999 -999 -999 -99.9 -99.9 -999.9 -9.9 -9.999 -99.9 -99.99 -9.99
2019/11/18 05:42 EST    0.48 -99.99 -999 -999 -999 -99.9 -99.9 -999.9 -9.9 -9.999 -99.9 -99.99 -9.99
2019/11/18 05:48 EST    0.54 -99.99 -999 -999 -999 -99.9 -99.9 -999.9 -9.9 -9.999 -99.9 -99.99 -9.99
2019/11/18 05:54 EST    0.61 -99.99 -999 -999 -999 -99.9 -99.9 -999.9 -9.9 -9.999 -99.9 -99.99 -9.99
2019/11/18 06:00 EST    0.68 -99.99 -999 -999 -999 -99.9 -99.9 -999.9 -9.9 -9.999 -99.9 -99.99 -9.99
2019/11/18 06:06 EST    0.75 -99.99 -999 -999 -999 -99.9 -99.9 -999.9 -9.9 -9.999 -99.9 -99.99 -9.99
2019/11/18 06:12 EST    0.82 -99.99 -999 -999 -999 -99.9 -99.9 -999.9 -9.9 -9.999 -99.9 -99.99 -9.99
2019/11/18 06:18 EST    0.90 -99.99 -999 -999 -999 -99.9 -99.9 -999.9 -9.9 -9.999 -99.9 -99.99 -9.99
2019/11/18 06:24 EST    0.98 -99.99 -999 -999 -999 -99.9 -99.9 -999.9 -9.9 -9.999 -99.9 -99.99 -9.99
2019/11/18 06:30 EST    1.05 -99.99 -999 -999 -999 -99.9 -99.9 -999.9 -9.9 -9.999 -99.9 -99.99 -9.99
2019/11/18 06:36 EST    1.13 -99.99 -999 -999 -999 -99.9 -99.9 -999.9 -9.9 -9.999 -99.9 -99.99 -9.99
2019/11/18 06:42 EST    1.20 -99.99 -999 -999 -999 -99.9 -99.9 -999.9 -9.9 -9.999 -99.9 -99.99 -9.99
2019/11/18 06:48 EST    1.28 -99.99 -999 -999 -999 -99.9 -99.9 -999.9 -9.9 -9.999 -99.9 -99.99 -9.99
2019/11/18 06:54 EST    1.35 -99.99 -999 -999 -999 -99.9 -99.9 -999.9 -9.9 -9.999 -99.9 -99.99 -9.99
2019/11/18 07:00 EST    1.43 -99.99 -999 -999 -999 -99.9 -99.9 -999.9 -9.9 -9.999 -99.9 -99.99 -9.99
2019/11/18 07:06 EST    1.50 -99.99 -999 -999 -999 -99.9 -99.9 -999.9 -9.9 -9.999 -99.9 -99.99 -9.99
2019/11/18 07:12 EST    1.56 -99.99 -999 -999 -999 -99.9 -99.9 -999.9 -9.9 -9.999 -99.9 -99.99 -9.99